Time;durP1;ratioP1;P1;durP2;ratioP2;P2;SDS_P1;SDS_P2;PMS_P1;PMS_P2;Temp;Humidity;BMP_temperature;BMP_pressure;BME280_temperature;BME280_humidity;BME280_pressure;Samples;Min_cycle;Max_cycle;Signal;HPM_P1;HPM_P2
2023/12/15 00:00:33;;;;;;;1.30;1.20;;;21.00;73.20;;;;;;4991058;28;20202;-61
2023/12/15 00:03:01;;;;;;;1.55;1.45;;;21.00;73.10;;;;;;4989057;28;20217;-63
2023/12/15 00:05:28;;;;;;;1.60;1.50;;;21.00;73.20;;;;;;4988310;28;20958;-63
2023/12/15 00:07:55;;;;;;;1.70;1.50;;;21.00;73.20;;;;;;4990901;28;20206;-62
2023/12/15 00:10:21;;;;;;;1.90;1.70;;;21.00;73.10;;;;;;4988583;28;20455;-61
2023/12/15 00:12:48;;;;;;;1.53;1.43;;;21.00;73.20;;;;;;4989176;28;20669;-63
2023/12/15 00:15:15;;;;;;;2.40;1.50;;;21.00;73.20;;;;;;4989186;28;20515;-63
2023/12/15 00:17:41;;;;;;;1.63;1.48;;;21.00;73.30;;;;;;4988669;28;20488;-61
2023/12/15 00:20:10;;;;;;;1.55;1.45;;;20.90;73.20;;;;;;4986816;28;20201;-60
2023/12/15 00:22:37;;;;;;;1.63;1.50;;;20.90;73.30;;;;;;4984238;28;20196;-61
2023/12/15 00:25:04;;;;;;;2.25;1.98;;;20.90;73.30;;;;;;4985614;28;20196;-62
2023/12/15 00:27:31;;;;;;;1.58;1.48;;;20.90;73.50;;;;;;4985647;28;20540;-63
2023/12/15 00:29:58;;;;;;;1.63;1.40;;;20.90;73.20;;;;;;4982004;28;20209;-63
2023/12/15 00:32:24;;;;;;;1.40;1.30;;;20.90;73.40;;;;;;4984963;28;21065;-61
2023/12/15 00:34:52;;;;;;;1.40;1.30;;;20.90;73.60;;;;;;4987556;28;20197;-63
2023/12/15 00:37:21;;;;;;;1.55;1.40;;;20.90;73.40;;;;;;4989479;28;20396;-63
2023/12/15 00:39:47;;;;;;;1.40;1.30;;;20.90;73.50;;;;;;4991201;28;20204;-60
2023/12/15 00:42:14;;;;;;;1.50;1.40;;;20.90;73.80;;;;;;4985060;28;20192;-62
2023/12/15 00:44:41;;;;;;;1.50;1.40;;;20.90;73.50;;;;;;4982243;28;20197;-61
2023/12/15 00:47:08;;;;;;;1.60;1.50;;;20.90;73.60;;;;;;4986700;28;20248;-61
2023/12/15 00:49:35;;;;;;;2.38;1.73;;;20.80;73.40;;;;;;4987797;28;20201;-59
2023/12/15 00:52:01;;;;;;;1.60;1.50;;;20.90;73.50;;;;;;4985488;28;20201;-62
2023/12/15 00:54:30;;;;;;;1.92;1.80;;;20.80;73.70;;;;;;4990075;28;20201;-62
2023/12/15 00:56:56;;;;;;;2.00;1.63;;;20.80;73.40;;;;;;4986833;28;20208;-60
2023/12/15 00:59:23;;;;;;;1.85;1.58;;;20.80;73.20;;;;;;4983678;28;20803;-63
2023/12/15 01:01:50;;;;;;;1.83;1.45;;;20.80;73.50;;;;;;4987838;28;20197;-62
2023/12/15 01:04:16;;;;;;;1.65;1.52;;;20.80;73.40;;;;;;4981492;28;20720;-60
2023/12/15 01:06:44;;;;;;;1.98;1.52;;;20.80;73.50;;;;;;4984184;28;20193;-61
2023/12/15 01:09:11;;;;;;;1.80;1.70;;;20.80;73.40;;;;;;4991725;28;20192;-62
2023/12/15 01:11:39;;;;;;;1.42;1.33;;;20.80;73.60;;;;;;4986032;28;20199;-63
2023/12/15 01:14:06;;;;;;;1.52;1.42;;;20.80;73.60;;;;;;4987869;28;20575;-62
2023/12/15 01:16:33;;;;;;;1.50;1.38;;;20.80;73.50;;;;;;4985122;28;20218;-63
2023/12/15 01:19:00;;;;;;;1.73;1.63;;;20.80;73.80;;;;;;4986219;28;20241;-61
2023/12/15 01:21:27;;;;;;;1.85;1.67;;;20.80;73.80;;;;;;4986783;28;20209;-63
2023/12/15 01:23:53;;;;;;;1.50;1.40;;;20.80;73.60;;;;;;4992863;28;20748;-61
2023/12/15 01:26:20;;;;;;;1.75;1.65;;;20.70;73.60;;;;;;4992139;28;20192;-63
2023/12/15 01:28:48;;;;;;;1.88;1.70;;;20.80;73.70;;;;;;4987554;28;20209;-63
2023/12/15 01:31:15;;;;;;;1.42;1.33;;;20.70;73.80;;;;;;4988937;28;20203;-63
2023/12/15 01:33:41;;;;;;;1.83;1.65;;;20.80;73.60;;;;;;4987291;28;20204;-61
2023/12/15 01:36:09;;;;;;;1.85;1.40;;;20.80;73.50;;;;;;4990627;28;20732;-61
2023/12/15 01:38:36;;;;;;;1.70;1.60;;;20.80;73.50;;;;;;4990557;28;20216;-61
2023/12/15 01:41:02;;;;;;;1.85;1.52;;;20.70;73.60;;;;;;4987121;28;20211;-62
2023/12/15 01:43:29;;;;;;;1.30;1.20;;;20.70;73.60;;;;;;4988184;28;20201;-60
2023/12/15 01:45:57;;;;;;;1.40;1.27;;;20.70;73.50;;;;;;4990970;28;20204;-62
2023/12/15 01:48:24;;;;;;;1.88;1.50;;;20.70;73.90;;;;;;4979276;28;21082;-62
2023/12/15 01:50:51;;;;;;;2.10;1.70;;;20.70;73.60;;;;;;4989910;28;20224;-63
2023/12/15 01:53:17;;;;;;;1.63;1.52;;;20.70;73.60;;;;;;4987747;28;20221;-61
2023/12/15 01:55:44;;;;;;;1.87;1.77;;;20.70;73.70;;;;;;4986708;28;20197;-59
2023/12/15 01:58:11;;;;;;;1.52;1.30;;;20.70;73.60;;;;;;4989835;28;20487;-62
2023/12/15 02:00:38;;;;;;;1.30;1.13;;;20.70;73.80;;;;;;4988249;28;20212;-62
2023/12/15 02:03:06;;;;;;;1.60;1.50;;;20.70;73.80;;;;;;4990143;28;20315;-59
2023/12/15 02:05:33;;;;;;;1.60;1.35;;;20.70;73.80;;;;;;4988386;28;20208;-62
2023/12/15 02:08:00;;;;;;;1.40;1.30;;;20.70;73.70;;;;;;4986480;28;20201;-63
2023/12/15 02:10:27;;;;;;;1.50;1.40;;;20.70;73.80;;;;;;4986389;28;20208;-62
2023/12/15 02:12:54;;;;;;;1.75;1.65;;;20.70;73.60;;;;;;4988469;28;20197;-60
2023/12/15 02:15:20;;;;;;;1.80;1.70;;;20.70;73.80;;;;;;4992370;28;20200;-61
2023/12/15 02:17:47;;;;;;;2.10;1.90;;;20.70;73.70;;;;;;4987436;28;20233;-59
2023/12/15 02:20:15;;;;;;;1.52;1.42;;;20.70;73.80;;;;;;4986453;28;20204;-62
2023/12/15 02:22:43;;;;;;;1.80;1.70;;;20.70;73.80;;;;;;4989595;28;20197;-61
2023/12/15 02:25:10;;;;;;;1.48;1.38;;;20.60;73.60;;;;;;4990487;28;20197;-62
2023/12/15 02:27:38;;;;;;;1.80;1.70;;;20.70;73.90;;;;;;4989253;28;20196;-61
2023/12/15 02:30:06;;;;;;;1.40;1.30;;;20.70;73.80;;;;;;4988545;28;20211;-61
2023/12/15 02:32:33;;;;;;;1.35;1.25;;;20.70;74.00;;;;;;4991837;28;20211;-56
2023/12/15 02:35:00;;;;;;;1.60;1.40;;;20.70;73.90;;;;;;4993838;28;20204;-62
2023/12/15 02:37:27;;;;;;;1.50;1.20;;;20.70;73.70;;;;;;4992445;28;20905;-61
2023/12/15 02:39:56;;;;;;;1.85;1.42;;;20.60;73.70;;;;;;4993045;28;20196;-61
2023/12/15 02:42:22;;;;;;;1.85;1.17;;;20.60;74.60;;;;;;4987780;28;20197;-63
2023/12/15 02:44:49;;;;;;;2.17;1.65;;;20.70;73.80;;;;;;4989523;28;20193;-63
2023/12/15 02:47:16;;;;;;;1.77;1.52;;;20.60;73.70;;;;;;4991042;28;20197;-62
2023/12/15 02:49:42;;;;;;;1.38;1.25;;;20.60;73.70;;;;;;4993161;28;20722;-61
2023/12/15 02:52:09;;;;;;;1.75;1.48;;;20.60;73.60;;;;;;4992821;28;20552;-61
2023/12/15 02:54:36;;;;;;;1.35;1.25;;;20.60;73.70;;;;;;4994704;28;20209;-63
2023/12/15 02:57:04;;;;;;;1.65;1.38;;;20.60;73.70;;;;;;4992685;28;20204;-61
2023/12/15 02:59:31;;;;;;;1.67;1.50;;;20.60;73.80;;;;;;4993286;28;20227;-63
2023/12/15 03:01:58;;;;;;;1.95;1.60;;;20.60;73.80;;;;;;4990825;28;20200;-61
2023/12/15 03:04:24;;;;;;;1.58;1.40;;;20.60;74.00;;;;;;4983380;28;20329;-60
2023/12/15 03:06:51;;;;;;;1.50;1.33;;;20.60;74.00;;;;;;4992495;28;20208;-62
2023/12/15 03:09:18;;;;;;;1.30;1.20;;;20.60;74.00;;;;;;4987529;28;20223;-62
2023/12/15 03:11:45;;;;;;;1.63;1.52;;;20.60;74.00;;;;;;4993070;28;20727;-63
2023/12/15 03:14:13;;;;;;;1.30;1.20;;;20.60;73.90;;;;;;4989583;28;20205;-63
2023/12/15 03:16:39;;;;;;;1.70;1.50;;;20.60;73.90;;;;;;4990298;28;20201;-62
2023/12/15 03:19:06;;;;;;;1.50;1.40;;;20.50;73.60;;;;;;4991099;28;20220;-61
2023/12/15 03:21:33;;;;;;;1.40;1.30;;;20.60;73.70;;;;;;4991825;28;20200;-59
2023/12/15 03:24:00;;;;;;;2.03;1.67;;;20.60;73.70;;;;;;4990347;28;20200;-61
2023/12/15 03:26:27;;;;;;;1.88;1.70;;;20.60;73.90;;;;;;4993551;28;20201;-60
2023/12/15 03:28:54;;;;;;;1.92;1.73;;;20.50;73.80;;;;;;4982583;28;20236;-61
2023/12/15 03:31:22;;;;;;;1.63;1.52;;;20.60;73.90;;;;;;4993945;28;20688;-61
2023/12/15 03:33:49;;;;;;;1.38;1.27;;;20.50;73.90;;;;;;4992227;28;20756;-61
2023/12/15 03:36:15;;;;;;;1.40;1.30;;;20.50;73.70;;;;;;4991942;28;20573;-60
2023/12/15 03:38:42;;;;;;;1.55;1.45;;;20.50;73.90;;;;;;4990073;28;20220;-61
2023/12/15 03:41:12;;;;;;;1.25;1.15;;;20.60;73.70;;;;;;4983706;28;20204;-61
2023/12/15 03:43:39;;;;;;;1.50;1.40;;;20.60;74.10;;;;;;4987867;28;20193;-61
2023/12/15 03:46:06;;;;;;;1.63;1.30;;;20.50;73.60;;;;;;4988402;28;20201;-60
2023/12/15 03:48:34;;;;;;;1.60;1.40;;;20.50;74.00;;;;;;4986924;28;20213;-63
2023/12/15 03:51:00;;;;;;;1.50;1.40;;;20.50;74.00;;;;;;4987331;28;20193;-61
2023/12/15 03:53:27;;;;;;;1.55;1.30;;;20.50;74.10;;;;;;4988324;28;20201;-61
2023/12/15 03:55:54;;;;;;;1.40;1.10;;;20.50;74.00;;;;;;4986066;28;20780;-62
2023/12/15 03:58:21;;;;;;;1.50;1.40;;;20.50;74.10;;;;;;4985856;28;20227;-62
2023/12/15 04:00:47;;;;;;;1.30;1.20;;;20.50;74.00;;;;;;4982245;28;20201;-63
2023/12/15 04:03:14;;;;;;;1.60;1.45;;;20.50;73.90;;;;;;4983963;28;20205;-61
2023/12/15 04:05:42;;;;;;;1.50;1.40;;;20.50;73.90;;;;;;4984466;28;20284;-61
2023/12/15 04:08:09;;;;;;;1.85;1.10;;;20.50;73.90;;;;;;4987736;28;20349;-60
2023/12/15 04:10:36;;;;;;;1.70;1.50;;;20.50;73.90;;;;;;4988174;28;20200;-63
2023/12/15 04:13:02;;;;;;;1.73;1.63;;;20.50;73.90;;;;;;4986107;28;20201;-62
2023/12/15 04:15:29;;;;;;;1.48;1.38;;;20.50;73.70;;;;;;4986224;28;20208;-61
2023/12/15 04:17:56;;;;;;;1.33;1.23;;;20.50;73.90;;;;;;4983838;28;20229;-58
2023/12/15 04:20:23;;;;;;;1.58;1.40;;;20.50;73.90;;;;;;4972132;28;20198;-62
2023/12/15 04:22:51;;;;;;;1.35;1.20;;;20.50;74.00;;;;;;4986892;28;20204;-61
2023/12/15 04:25:17;;;;;;;1.40;1.25;;;20.50;74.10;;;;;;4984640;28;20419;-62
2023/12/15 04:27:44;;;;;;;1.55;1.40;;;20.50;74.00;;;;;;4987772;28;20305;-60
2023/12/15 04:30:11;;;;;;;1.40;1.30;;;20.40;73.80;;;;;;4984394;28;20204;-60
2023/12/15 04:32:38;;;;;;;1.85;1.50;;;20.50;73.70;;;;;;4983840;28;20197;-61
2023/12/15 04:35:06;;;;;;;4.30;1.52;;;20.50;74.70;;;;;;4980948;28;20197;-62
2023/12/15 04:37:33;;;;;;;1.52;1.42;;;20.50;73.90;;;;;;4987563;28;20196;-61
2023/12/15 04:40:01;;;;;;;1.30;1.20;;;20.50;74.00;;;;;;4986354;28;20240;-62
2023/12/15 04:42:28;;;;;;;1.30;1.10;;;20.40;73.90;;;;;;4984035;28;20197;-61
2023/12/15 04:44:55;;;;;;;1.60;1.50;;;20.40;74.00;;;;;;4983308;28;20389;-60
2023/12/15 04:47:22;;;;;;;1.55;1.45;;;20.40;73.90;;;;;;4984704;28;20197;-62
2023/12/15 04:49:48;;;;;;;1.20;1.10;;;20.40;74.10;;;;;;4984095;28;20202;-61
2023/12/15 04:52:15;;;;;;;1.30;1.17;;;20.40;73.90;;;;;;4987580;28;20227;-62
2023/12/15 04:54:42;;;;;;;1.55;1.35;;;20.40;73.80;;;;;;4987757;28;20200;-61
2023/12/15 04:57:10;;;;;;;1.45;1.35;;;20.40;74.00;;;;;;4983851;28;20204;-61
2023/12/15 04:59:39;;;;;;;1.30;1.20;;;20.40;74.00;;;;;;4982413;28;20763;-61
2023/12/15 05:02:06;;;;;;;1.27;1.17;;;20.40;73.90;;;;;;4986961;28;20235;-59
2023/12/15 05:04:33;;;;;;;1.48;1.38;;;20.40;73.90;;;;;;4987925;28;20228;-62
2023/12/15 05:07:00;;;;;;;1.40;1.30;;;20.40;73.80;;;;;;4986149;28;20219;-61
2023/12/15 05:09:27;;;;;;;1.55;1.45;;;20.40;73.70;;;;;;4985999;28;20207;-61
2023/12/15 05:11:54;;;;;;;1.58;1.48;;;20.40;73.90;;;;;;4984997;28;20197;-58
2023/12/15 05:14:22;;;;;;;1.60;1.50;;;20.40;74.10;;;;;;4980926;28;20208;-61
2023/12/15 05:16:49;;;;;;;1.38;1.20;;;20.40;74.00;;;;;;4983396;28;20212;-62
2023/12/15 05:19:16;;;;;;;1.55;1.45;;;20.40;73.90;;;;;;4987875;28;20228;-61
2023/12/15 05:21:42;;;;;;;1.50;1.40;;;20.40;74.00;;;;;;4985857;28;20712;-61
2023/12/15 05:24:09;;;;;;;1.50;1.40;;;20.40;74.00;;;;;;4987105;28;20212;-58
2023/12/15 05:26:36;;;;;;;1.42;1.33;;;20.40;74.00;;;;;;4989260;28;20201;-59
2023/12/15 05:29:02;;;;;;;1.65;1.25;;;20.40;74.10;;;;;;4987952;28;20209;-61
2023/12/15 05:31:30;;;;;;;1.38;1.27;;;20.40;74.00;;;;;;4990675;28;20190;-62
2023/12/15 05:33:57;;;;;;;1.50;1.40;;;20.40;74.00;;;;;;4991806;28;20570;-63
2023/12/15 05:36:24;;;;;;;1.70;1.45;;;20.40;73.90;;;;;;4988449;28;20499;-59
2023/12/15 05:38:52;;;;;;;1.70;1.33;;;20.40;74.00;;;;;;4987448;28;20240;-61
2023/12/15 05:41:18;;;;;;;1.30;1.15;;;20.40;73.90;;;;;;4990280;28;20200;-58
2023/12/15 05:43:45;;;;;;;1.37;1.27;;;20.40;74.00;;;;;;4993549;28;20584;-62
2023/12/15 05:46:12;;;;;;;1.50;1.40;;;20.40;74.00;;;;;;4990944;28;20212;-64
2023/12/15 05:48:40;;;;;;;1.88;1.40;;;20.40;74.10;;;;;;4990513;28;20283;-60
2023/12/15 05:51:08;;;;;;;1.40;1.13;;;20.40;74.10;;;;;;4986803;28;20200;-62
2023/12/15 05:53:34;;;;;;;1.35;1.15;;;20.40;74.00;;;;;;4988291;28;20197;-62
2023/12/15 05:56:01;;;;;;;1.65;1.15;;;20.40;73.90;;;;;;4985180;28;20196;-64
2023/12/15 05:58:28;;;;;;;1.58;1.48;;;20.40;73.90;;;;;;4985363;28;20212;-64
2023/12/15 06:00:55;;;;;;;2.25;2.05;;;20.40;73.90;;;;;;4986232;28;21028;-64
2023/12/15 06:03:22;;;;;;;1.50;1.40;;;20.40;73.90;;;;;;4988917;28;20196;-64
2023/12/15 06:05:50;;;;;;;1.30;1.20;;;20.40;74.10;;;;;;4989822;28;20202;-63
2023/12/15 06:08:16;;;;;;;1.35;1.25;;;20.40;74.10;;;;;;4990062;28;20204;-62
2023/12/15 06:10:43;;;;;;;1.30;1.10;;;20.40;73.90;;;;;;4990287;28;20208;-63
2023/12/15 06:13:10;;;;;;;1.20;1.10;;;20.40;73.90;;;;;;4992556;28;20196;-64
2023/12/15 06:15:37;;;;;;;1.73;1.60;;;20.40;74.10;;;;;;4990572;28;20192;-62
2023/12/15 06:18:05;;;;;;;1.40;1.00;;;20.40;74.10;;;;;;4987810;28;20224;-61
2023/12/15 06:20:32;;;;;;;1.48;1.38;;;20.30;73.70;;;;;;4979524;28;20216;-61
2023/12/15 06:23:00;;;;;;;1.50;1.40;;;20.40;74.20;;;;;;4983453;28;20505;-64
2023/12/15 06:25:27;;;;;;;1.63;1.40;;;20.30;73.90;;;;;;4981970;28;20273;-61
2023/12/15 06:27:53;;;;;;;1.30;1.20;;;20.30;74.10;;;;;;4984290;28;20208;-64
2023/12/15 06:30:20;;;;;;;1.40;1.30;;;20.30;74.00;;;;;;4984927;28;20215;-64
2023/12/15 06:32:47;;;;;;;1.55;1.45;;;20.40;74.00;;;;;;4988737;28;20593;-62
2023/12/15 06:35:16;;;;;;;1.30;1.17;;;20.30;73.90;;;;;;4987365;28;20207;-63
2023/12/15 06:37:43;;;;;;;1.90;1.50;;;20.30;74.00;;;;;;4988578;28;20196;-62
2023/12/15 06:40:11;;;;;;;1.30;1.20;;;20.40;74.00;;;;;;4988587;28;20228;-62
2023/12/15 06:42:38;;;;;;;1.35;1.25;;;20.40;74.10;;;;;;4991042;28;20201;-63
2023/12/15 06:45:07;;;;;;;1.50;1.40;;;20.30;73.90;;;;;;4989661;28;20201;-60
2023/12/15 06:47:35;;;;;;;1.80;1.30;;;20.40;74.00;;;;;;4986572;28;20197;-61
2023/12/15 06:50:01;;;;;;;1.35;1.25;;;20.30;74.00;;;;;;4982720;28;20251;-62
2023/12/15 06:52:28;;;;;;;1.40;1.30;;;20.30;74.00;;;;;;4981741;28;20608;-61
2023/12/15 06:54:55;;;;;;;1.30;1.20;;;20.30;74.00;;;;;;4981503;28;20197;-62
2023/12/15 06:57:23;;;;;;;1.50;1.40;;;20.30;74.10;;;;;;4983927;28;20311;-63
2023/12/15 06:59:49;;;;;;;1.52;1.42;;;20.30;73.90;;;;;;4983906;28;20225;-61
2023/12/15 07:02:16;;;;;;;1.30;1.20;;;20.30;73.90;;;;;;4983515;28;20197;-59
2023/12/15 07:04:43;;;;;;;1.20;1.10;;;20.30;73.70;;;;;;4983003;28;20216;-62
2023/12/15 07:07:10;;;;;;;1.58;1.35;;;20.30;74.00;;;;;;4980391;28;20630;-62
2023/12/15 07:09:37;;;;;;;1.50;1.40;;;20.30;73.80;;;;;;4983244;28;20209;-60
2023/12/15 07:12:04;;;;;;;1.20;1.10;;;20.30;73.70;;;;;;4985680;28;20214;-59
2023/12/15 07:14:32;;;;;;;1.60;1.13;;;20.30;73.70;;;;;;4986041;28;20679;-63
2023/12/15 07:16:59;;;;;;;1.50;1.30;;;20.30;73.90;;;;;;4986408;28;20208;-63
2023/12/15 07:19:26;;;;;;;1.70;1.60;;;20.30;74.00;;;;;;4986771;28;21561;-62
2023/12/15 07:21:53;;;;;;;1.98;1.40;;;20.30;73.80;;;;;;4987864;28;20208;-63
2023/12/15 07:24:20;;;;;;;1.60;1.50;;;20.30;73.90;;;;;;4991506;28;21062;-63
2023/12/15 07:26:46;;;;;;;1.52;1.40;;;20.30;73.70;;;;;;4990263;28;20219;-61
2023/12/15 07:29:13;;;;;;;1.48;1.17;;;20.20;74.50;;;;;;4987652;28;20200;-62
2023/12/15 07:31:41;;;;;;;1.50;1.23;;;20.30;73.70;;;;;;4985609;28;21117;-59
2023/12/15 07:34:08;;;;;;;1.80;1.33;;;20.20;73.80;;;;;;4989418;28;20200;-63
2023/12/15 07:36:34;;;;;;;1.55;1.45;;;20.20;74.00;;;;;;4991172;28;20193;-63
2023/12/15 07:39:01;;;;;;;1.52;1.40;;;20.30;74.10;;;;;;4992575;28;20201;-63
2023/12/15 07:41:28;;;;;;;1.77;1.50;;;20.20;74.20;;;;;;4992377;28;20197;-59
2023/12/15 07:43:54;;;;;;;1.48;1.38;;;20.20;74.30;;;;;;4991705;28;20197;-61
2023/12/15 07:46:21;;;;;;;1.70;1.60;;;20.30;74.60;;;;;;4990373;28;20204;-62
2023/12/15 07:48:50;;;;;;;1.50;1.40;;;20.30;74.60;;;;;;4989467;28;20756;-61
2023/12/15 07:51:18;;;;;;;1.50;1.30;;;20.20;74.60;;;;;;4986910;28;20201;-60
2023/12/15 07:53:46;;;;;;;1.85;1.33;;;20.30;74.70;;;;;;4991865;28;20219;-61
2023/12/15 07:56:19;;;;;;;1.40;1.30;;;20.30;74.70;;;;;;4991807;28;20323;-61
2023/12/15 07:58:46;;;;;;;2.05;1.30;;;20.30;74.60;;;;;;4992355;28;20193;-59
2023/12/15 08:01:13;;;;;;;1.50;1.30;;;20.30;74.70;;;;;;4989002;28;20228;-62
2023/12/15 08:03:39;;;;;;;1.83;1.55;;;20.30;74.60;;;;;;4991717;28;20732;-60
2023/12/15 08:06:08;;;;;;;1.73;1.50;;;20.30;74.50;;;;;;4991689;28;20188;-60
2023/12/15 08:08:35;;;;;;;1.52;1.08;;;20.30;74.70;;;;;;4994800;28;20201;-60
2023/12/15 08:11:01;;;;;;;1.38;1.27;;;20.30;74.80;;;;;;4993861;28;20200;-60
2023/12/15 08:13:28;;;;;;;2.10;1.90;;;20.30;74.50;;;;;;4993088;28;20197;-60
2023/12/15 08:15:56;;;;;;;1.63;1.40;;;20.30;74.70;;;;;;4985839;28;20640;-60
2023/12/15 08:18:23;;;;;;;2.22;1.80;;;20.40;74.60;;;;;;4987437;28;20621;-60
2023/12/15 08:20:50;;;;;;;1.60;1.25;;;20.40;74.50;;;;;;4986971;28;20213;-61
2023/12/15 08:23:18;;;;;;;1.90;1.70;;;20.30;74.50;;;;;;4993173;28;20197;-56
2023/12/15 08:25:45;;;;;;;2.03;1.77;;;20.30;74.50;;;;;;4990979;28;20212;-61
2023/12/15 08:28:11;;;;;;;5.22;1.80;;;20.40;74.80;;;;;;4990081;28;20499;-61
2023/12/15 08:30:38;;;;;;;3.40;1.92;;;20.40;74.60;;;;;;4993593;28;20742;-60
2023/12/15 08:33:05;;;;;;;1.55;1.45;;;20.40;75.10;;;;;;4983408;28;20205;-62
2023/12/15 08:35:32;;;;;;;1.63;1.52;;;20.40;74.80;;;;;;4987770;28;20201;-61
2023/12/15 08:37:58;;;;;;;2.10;1.90;;;20.40;74.80;;;;;;4990720;28;20193;-62
2023/12/15 08:40:27;;;;;;;1.90;1.73;;;20.40;74.90;;;;;;4985781;28;20228;-62
2023/12/15 08:42:54;;;;;;;3.88;1.90;;;20.40;75.00;;;;;;4987957;28;20197;-60
2023/12/15 08:45:21;;;;;;;3.10;2.58;;;20.40;75.60;;;;;;4987464;28;20208;-60
2023/12/15 08:47:48;;;;;;;5.18;2.53;;;20.50;76.60;;;;;;4987907;28;20200;-62
2023/12/15 08:50:15;;;;;;;3.28;3.00;;;20.50;75.80;;;;;;4984256;28;20219;-62
2023/12/15 08:52:43;;;;;;;5.53;3.08;;;20.50;75.70;;;;;;4988508;28;20193;-61
2023/12/15 08:55:10;;;;;;;3.03;2.72;;;20.50;76.30;;;;;;4992758;28;21221;-62
2023/12/15 08:57:38;;;;;;;2.78;2.50;;;20.40;76.30;;;;;;4984415;28;20197;-60
2023/12/15 09:00:06;;;;;;;4.78;4.28;;;20.50;76.30;;;;;;4987327;28;20224;-60
2023/12/15 09:02:33;;;;;;;8.82;7.40;;;20.50;75.80;;;;;;4985988;28;20220;-59
2023/12/15 09:05:01;;;;;;;11.43;7.35;;;20.40;74.20;;;;;;4987050;28;20255;-61
2023/12/15 09:07:28;;;;;;;7.45;5.38;;;20.30;74.40;;;;;;4989399;28;20748;-60
2023/12/15 09:09:55;;;;;;;6.22;4.40;;;20.30;74.70;;;;;;4987803;28;20200;-59
2023/12/15 09:12:21;;;;;;;9.93;5.68;;;20.30;74.60;;;;;;4989767;28;20196;-59
2023/12/15 09:14:50;;;;;;;6.75;3.80;;;20.30;74.70;;;;;;4990063;28;20193;-59
2023/12/15 09:17:16;;;;;;;5.95;3.78;;;20.30;74.80;;;;;;4990731;28;20253;-59
2023/12/15 09:19:43;;;;;;;4.65;4.25;;;20.30;74.80;;;;;;4990292;28;20200;-58
2023/12/15 09:22:10;;;;;;;7.90;4.80;;;20.30;74.80;;;;;;4989189;28;20850;-57
2023/12/15 09:24:36;;;;;;;4.72;4.32;;;20.30;74.70;;;;;;4990763;28;20207;-59
2023/12/15 09:27:04;;;;;;;4.05;3.65;;;20.30;74.70;;;;;;4991387;28;21076;-59
2023/12/15 09:29:34;;;;;;;12.65;5.18;;;20.30;74.70;;;;;;4988780;28;20274;-59
2023/12/15 09:32:02;;;;;;;4.30;3.90;;;20.30;74.70;;;;;;4988360;28;20197;-59
2023/12/15 09:34:29;;;;;;;4.68;3.30;;;20.40;74.80;;;;;;4988910;28;20204;-57
2023/12/15 09:36:56;;;;;;;5.45;3.42;;;20.30;74.80;;;;;;4989430;28;20676;-59
2023/12/15 09:39:23;;;;;;;3.80;3.50;;;20.30;74.80;;;;;;4989118;28;20203;-61
2023/12/15 09:41:50;;;;;;;4.28;3.88;;;20.30;75.60;;;;;;4988439;28;20263;-60
2023/12/15 09:44:18;;;;;;;6.15;3.85;;;20.30;74.60;;;;;;4990029;28;20204;-57
2023/12/15 09:46:45;;;;;;;4.03;3.60;;;20.30;74.90;;;;;;4985978;28;20201;-60
2023/12/15 09:49:18;;;;;;;5.90;3.80;;;20.30;74.80;;;;;;4987986;28;21003;-60
2023/12/15 09:51:49;;;;;;;5.47;3.15;;;20.30;74.80;;;;;;4984847;28;20204;-59
2023/12/15 09:54:16;;;;;;;3.42;2.70;;;20.30;75.60;;;;;;4989246;28;20314;-60
2023/12/15 09:56:43;;;;;;;6.10;3.50;;;20.30;74.80;;;;;;4987506;28;20197;-59
2023/12/15 09:59:10;;;;;;;7.82;3.92;;;20.30;75.00;;;;;;4986896;28;20201;-60
2023/12/15 10:01:37;;;;;;;3.22;2.70;;;20.30;74.90;;;;;;4986842;28;20392;-61
2023/12/15 10:04:04;;;;;;;3.80;3.40;;;20.30;75.00;;;;;;4988481;28;20213;-60
2023/12/15 10:06:35;;;;;;;3.25;2.95;;;20.30;74.80;;;;;;4991737;28;20205;-59
2023/12/15 10:09:02;;;;;;;3.92;2.95;;;20.30;75.80;;;;;;4989077;28;20197;-60
2023/12/15 10:11:33;;;;;;;4.28;3.53;;;20.30;75.10;;;;;;4989640;28;20597;-59
2023/12/15 10:14:03;;;;;;;4.50;2.60;;;20.30;74.90;;;;;;4989283;28;20688;-60
2023/12/15 10:16:30;;;;;;;4.80;3.33;;;20.30;75.00;;;;;;4990992;28;20197;-58
2023/12/15 10:18:57;;;;;;;4.82;3.85;;;20.30;75.00;;;;;;4992737;28;20196;-58
2023/12/15 10:21:24;;;;;;;3.20;2.80;;;20.30;75.00;;;;;;4986958;28;20225;-59
2023/12/15 10:23:52;;;;;;;4.28;2.70;;;20.30;75.00;;;;;;4990563;28;21097;-59
2023/12/15 10:26:18;;;;;;;4.10;3.70;;;20.30;75.20;;;;;;4989022;28;20200;-61
2023/12/15 10:28:45;;;;;;;4.30;3.38;;;20.30;75.00;;;;;;4988217;28;20201;-61
2023/12/15 10:31:12;;;;;;;4.30;3.55;;;20.30;75.00;;;;;;4989746;28;20677;-60
2023/12/15 10:33:42;;;;;;;3.30;3.00;;;20.30;75.00;;;;;;4987939;28;20204;-59
2023/12/15 10:36:13;;;;;;;3.40;3.05;;;20.30;74.90;;;;;;4987798;28;20223;-54
2023/12/15 10:38:40;;;;;;;3.63;3.17;;;20.30;74.80;;;;;;4989304;28;20208;-60
2023/12/15 10:41:09;;;;;;;3.20;2.90;;;20.30;74.80;;;;;;4988521;28;20228;-60
2023/12/15 10:43:37;;;;;;;3.35;2.97;;;20.30;74.80;;;;;;4986671;28;20223;-58
2023/12/15 10:46:08;;;;;;;4.60;3.05;;;20.30;75.00;;;;;;4987555;28;20208;-57
2023/12/15 10:48:36;;;;;;;3.78;3.03;;;20.30;75.00;;;;;;4991942;28;20723;-59
2023/12/15 10:51:03;;;;;;;3.45;3.15;;;20.30;74.80;;;;;;4992255;28;20810;-60
2023/12/15 10:53:32;;;;;;;6.13;3.30;;;20.30;74.80;;;;;;4996544;28;20208;-57
2023/12/15 10:56:00;;;;;;;3.55;3.17;;;20.40;74.80;;;;;;4994139;28;20750;-58
2023/12/15 10:58:29;;;;;;;3.50;3.20;;;20.30;74.80;;;;;;4980706;28;20793;-57
2023/12/15 11:00:56;;;;;;;3.30;2.63;;;20.30;74.90;;;;;;4991680;28;20311;-55
2023/12/15 11:03:23;;;;;;;3.80;3.38;;;20.30;74.70;;;;;;4996777;28;20201;-61
2023/12/15 11:05:50;;;;;;;3.47;3.17;;;20.30;75.00;;;;;;4987601;28;20684;-58
2023/12/15 11:08:17;;;;;;;2.35;2.15;;;20.30;74.90;;;;;;4994545;28;21072;-61
2023/12/15 11:10:46;;;;;;;4.22;3.28;;;20.30;74.90;;;;;;4991625;28;20299;-59
2023/12/15 11:13:51;;;;;;;3.28;2.42;;;20.30;74.70;;;;;;4993162;28;20224;-58
2023/12/15 11:16:20;;;;;;;3.17;2.50;;;20.30;74.90;;;;;;4995706;28;20224;-58
2023/12/15 11:18:49;;;;;;;3.15;2.85;;;20.30;74.80;;;;;;4996031;28;20208;-57
2023/12/15 11:21:16;;;;;;;4.05;3.20;;;20.30;74.80;;;;;;4987320;28;20228;-61
2023/12/15 11:23:55;;;;;;;2.70;2.50;;;20.30;74.90;;;;;;4988555;28;20227;-57
2023/12/15 11:26:26;;;;;;;2.83;2.53;;;20.30;75.10;;;;;;4991040;28;20205;-60
2023/12/15 11:28:57;;;;;;;4.30;3.90;;;20.30;74.80;;;;;;4984234;28;20204;-59
2023/12/15 11:31:28;;;;;;;5.63;2.80;;;20.30;74.80;;;;;;4990296;28;20216;-58
2023/12/15 11:33:55;;;;;;;3.75;2.78;;;20.30;75.00;;;;;;4989746;28;20202;-61
2023/12/15 11:36:22;;;;;;;2.83;2.58;;;20.30;74.80;;;;;;4992877;28;20227;-60
2023/12/15 11:38:49;;;;;;;2.40;2.20;;;20.30;74.80;;;;;;4992347;28;20813;-61
2023/12/15 11:41:18;;;;;;;3.30;2.95;;;20.30;74.90;;;;;;4996070;28;20228;-61
2023/12/15 11:43:45;;;;;;;2.83;2.53;;;20.30;74.90;;;;;;4988504;28;20207;-56
2023/12/15 11:46:12;;;;;;;3.97;3.00;;;20.30;74.80;;;;;;4991970;28;20211;-59
2023/12/15 11:48:41;;;;;;;4.10;2.80;;;20.30;74.80;;;;;;4991159;28;20192;-59
2023/12/15 11:51:09;;;;;;;2.75;2.53;;;20.20;74.70;;;;;;4993592;28;20214;-60
2023/12/15 11:53:39;;;;;;;3.10;2.80;;;20.30;74.80;;;;;;4993205;28;20251;-60
2023/12/15 11:56:07;;;;;;;3.78;3.47;;;20.30;74.80;;;;;;4992694;28;20196;-58
2023/12/15 11:58:35;;;;;;;5.43;2.80;;;20.30;74.90;;;;;;4989583;28;20200;-60
2023/12/15 12:01:02;;;;;;;3.03;2.80;;;20.30;74.80;;;;;;4992444;28;20327;-60
2023/12/15 12:03:31;;;;;;;3.03;2.72;;;20.30;74.80;;;;;;4993176;28;20201;-60
2023/12/15 12:05:59;;;;;;;2.70;2.50;;;20.30;74.80;;;;;;4988948;28;20280;-60
2023/12/15 12:08:26;;;;;;;2.70;2.50;;;20.30;75.10;;;;;;4990563;28;20204;-58
2023/12/15 12:10:55;;;;;;;3.70;3.03;;;20.30;74.90;;;;;;4990054;28;20213;-60
2023/12/15 12:13:22;;;;;;;3.30;2.80;;;20.30;74.90;;;;;;4991319;28;20200;-61
2023/12/15 12:15:50;;;;;;;2.75;2.55;;;20.30;74.90;;;;;;4991065;28;20200;-58
2023/12/15 12:18:18;;;;;;;2.47;2.28;;;20.30;75.00;;;;;;4990559;28;20255;-58
2023/12/15 12:20:45;;;;;;;2.85;2.53;;;20.30;75.10;;;;;;4990597;28;20224;-57
2023/12/15 12:23:13;;;;;;;2.70;2.47;;;20.30;74.90;;;;;;4993908;28;20211;-58
2023/12/15 12:25:43;;;;;;;3.40;2.88;;;20.30;74.80;;;;;;4990549;28;20236;-57
2023/12/15 12:28:11;;;;;;;3.33;3.03;;;20.30;74.80;;;;;;4985595;28;20193;-55
2023/12/15 12:30:38;;;;;;;3.97;2.83;;;20.30;74.80;;;;;;4989240;28;20193;-58
2023/12/15 12:33:05;;;;;;;2.67;2.47;;;20.30;75.60;;;;;;4991157;28;20201;-58
2023/12/15 12:35:32;;;;;;;2.53;2.30;;;20.30;74.90;;;;;;4989359;28;20200;-58
2023/12/15 12:37:59;;;;;;;3.03;2.75;;;20.30;75.00;;;;;;4990241;28;20209;-60
2023/12/15 12:40:27;;;;;;;4.88;2.80;;;20.30;75.10;;;;;;4992773;28;20227;-59
2023/12/15 12:42:57;;;;;;;2.65;2.45;;;20.30;74.80;;;;;;4988882;28;20720;-59
2023/12/15 12:45:24;;;;;;;2.90;2.65;;;20.30;74.70;;;;;;4988699;28;20197;-59
2023/12/15 12:47:50;;;;;;;2.67;2.45;;;20.30;74.80;;;;;;4990345;28;20207;-61